sensor_id;sensor_type;location;lat;lon;timestamp;P1;durP1;ratioP1;P2;durP2;ratioP2
14292;SDS011;62290;59.420;17.842;2023-08-08T00:00:11;1.90;;;0.50;;
14292;SDS011;62290;59.420;17.842;2023-08-08T00:02:41;1.58;;;0.55;;
14292;SDS011;62290;59.420;17.842;2023-08-08T00:05:09;4.03;;;0.68;;
14292;SDS011;62290;59.420;17.842;2023-08-08T00:07:37;2.30;;;0.60;;
14292;SDS011;62290;59.420;17.842;2023-08-08T00:10:05;1.40;;;0.50;;
14292;SDS011;62290;59.420;17.842;2023-08-08T00:12:34;2.95;;;0.70;;
14292;SDS011;62290;59.420;17.842;2023-08-08T00:15:03;3.22;;;0.75;;
14292;SDS011;62290;59.420;17.842;2023-08-08T00:17:32;0.40;;;0.40;;
14292;SDS011;62290;59.420;17.842;2023-08-08T00:20:01;2.80;;;0.77;;
14292;SDS011;62290;59.420;17.842;2023-08-08T00:22:30;2.10;;;0.70;;
14292;SDS011;62290;59.420;17.842;2023-08-08T00:24:58;2.30;;;1.25;;
14292;SDS011;62290;59.420;17.842;2023-08-08T00:27:26;2.35;;;0.55;;
14292;SDS011;62290;59.420;17.842;2023-08-08T00:29:54;1.65;;;0.63;;
14292;SDS011;62290;59.420;17.842;2023-08-08T00:32:22;2.42;;;0.70;;
14292;SDS011;62290;59.420;17.842;2023-08-08T00:34:50;2.17;;;0.60;;
14292;SDS011;62290;59.420;17.842;2023-08-08T00:37:19;0.80;;;0.38;;
14292;SDS011;62290;59.420;17.842;2023-08-08T00:39:47;1.90;;;0.70;;
14292;SDS011;62290;59.420;17.842;2023-08-08T00:42:15;2.25;;;0.60;;
14292;SDS011;62290;59.420;17.842;2023-08-08T00:44:43;3.85;;;0.90;;
14292;SDS011;62290;59.420;17.842;2023-08-08T00:47:11;2.03;;;0.50;;
14292;SDS011;62290;59.420;17.842;2023-08-08T00:49:40;0.97;;;0.57;;
14292;SDS011;62290;59.420;17.842;2023-08-08T00:52:10;3.13;;;0.80;;
14292;SDS011;62290;59.420;17.842;2023-08-08T00:54:39;1.67;;;0.60;;
14292;SDS011;62290;59.420;17.842;2023-08-08T00:57:08;1.77;;;0.65;;
14292;SDS011;62290;59.420;17.842;2023-08-08T00:59:36;1.80;;;0.60;;
14292;SDS011;62290;59.420;17.842;2023-08-08T01:02:04;2.58;;;0.55;;
14292;SDS011;62290;59.420;17.842;2023-08-08T01:04:33;2.17;;;0.60;;
14292;SDS011;62290;59.420;17.842;2023-08-08T01:07:01;2.38;;;0.70;;
14292;SDS011;62290;59.420;17.842;2023-08-08T01:09:36;2.35;;;0.60;;
14292;SDS011;62290;59.420;17.842;2023-08-08T01:12:08;2.33;;;0.60;;
14292;SDS011;62290;59.420;17.842;2023-08-08T01:14:38;2.92;;;0.70;;
14292;SDS011;62290;59.420;17.842;2023-08-08T01:17:09;3.65;;;0.80;;
14292;SDS011;62290;59.420;17.842;2023-08-08T01:19:39;5.90;;;1.10;;
14292;SDS011;62290;59.420;17.842;2023-08-08T01:22:09;1.98;;;0.57;;
14292;SDS011;62290;59.420;17.842;2023-08-08T01:24:43;1.33;;;0.40;;
14292;SDS011;62290;59.420;17.842;2023-08-08T01:27:12;2.28;;;0.68;;
14292;SDS011;62290;59.420;17.842;2023-08-08T01:29:41;2.05;;;0.70;;
14292;SDS011;62290;59.420;17.842;2023-08-08T01:32:09;3.58;;;0.90;;
14292;SDS011;62290;59.420;17.842;2023-08-08T01:34:37;3.28;;;0.80;;
14292;SDS011;62290;59.420;17.842;2023-08-08T01:37:07;4.50;;;0.60;;
14292;SDS011;62290;59.420;17.842;2023-08-08T01:39:41;3.58;;;0.55;;
14292;SDS011;62290;59.420;17.842;2023-08-08T01:42:14;1.88;;;0.70;;
14292;SDS011;62290;59.420;17.842;2023-08-08T01:44:43;3.88;;;1.25;;
14292;SDS011;62290;59.420;17.842;2023-08-08T01:47:11;4.35;;;1.42;;
14292;SDS011;62290;59.420;17.842;2023-08-08T01:49:39;3.05;;;0.70;;
14292;SDS011;62290;59.420;17.842;2023-08-08T01:52:07;2.95;;;0.80;;
14292;SDS011;62290;59.420;17.842;2023-08-08T01:54:35;1.30;;;0.50;;
14292;SDS011;62290;59.420;17.842;2023-08-08T01:57:05;2.20;;;0.70;;
14292;SDS011;62290;59.420;17.842;2023-08-08T01:59:33;2.08;;;0.55;;
14292;SDS011;62290;59.420;17.842;2023-08-08T02:02:01;2.08;;;0.60;;
14292;SDS011;62290;59.420;17.842;2023-08-08T02:04:29;2.80;;;0.70;;
14292;SDS011;62290;59.420;17.842;2023-08-08T02:06:57;3.90;;;1.00;;
14292;SDS011;62290;59.420;17.842;2023-08-08T02:09:25;1.58;;;0.60;;
14292;SDS011;62290;59.420;17.842;2023-08-08T02:11:53;2.80;;;0.70;;
14292;SDS011;62290;59.420;17.842;2023-08-08T02:14:23;3.40;;;0.88;;
14292;SDS011;62290;59.420;17.842;2023-08-08T02:16:52;1.67;;;0.80;;
14292;SDS011;62290;59.420;17.842;2023-08-08T02:19:20;1.85;;;0.50;;
14292;SDS011;62290;59.420;17.842;2023-08-08T02:21:48;5.57;;;0.60;;
14292;SDS011;62290;59.420;17.842;2023-08-08T02:24:17;1.25;;;0.60;;
14292;SDS011;62290;59.420;17.842;2023-08-08T02:26:45;3.50;;;0.70;;
14292;SDS011;62290;59.420;17.842;2023-08-08T02:29:13;3.15;;;0.65;;
14292;SDS011;62290;59.420;17.842;2023-08-08T02:31:43;2.50;;;0.90;;
14292;SDS011;62290;59.420;17.842;2023-08-08T02:34:11;3.15;;;0.80;;
14292;SDS011;62290;59.420;17.842;2023-08-08T02:36:39;3.50;;;0.60;;
14292;SDS011;62290;59.420;17.842;2023-08-08T02:39:07;1.58;;;0.57;;
14292;SDS011;62290;59.420;17.842;2023-08-08T02:41:35;3.75;;;0.93;;
14292;SDS011;62290;59.420;17.842;2023-08-08T02:44:03;2.85;;;0.77;;
14292;SDS011;62290;59.420;17.842;2023-08-08T02:46:31;4.03;;;0.60;;
14292;SDS011;62290;59.420;17.842;2023-08-08T02:49:01;1.88;;;0.60;;
14292;SDS011;62290;59.420;17.842;2023-08-08T02:51:29;0.43;;;0.40;;
14292;SDS011;62290;59.420;17.842;2023-08-08T02:53:57;1.67;;;0.68;;
14292;SDS011;62290;59.420;17.842;2023-08-08T02:56:26;6.80;;;0.73;;
14292;SDS011;62290;59.420;17.842;2023-08-08T02:58:55;3.90;;;0.50;;
14292;SDS011;62290;59.420;17.842;2023-08-08T03:01:23;2.70;;;0.52;;
14292;SDS011;62290;59.420;17.842;2023-08-08T03:03:53;1.80;;;0.60;;
14292;SDS011;62290;59.420;17.842;2023-08-08T03:06:25;2.60;;;0.60;;
14292;SDS011;62290;59.420;17.842;2023-08-08T03:08:53;2.03;;;0.70;;
14292;SDS011;62290;59.420;17.842;2023-08-08T03:11:22;2.65;;;0.70;;
14292;SDS011;62290;59.420;17.842;2023-08-08T03:13:50;2.17;;;0.70;;
14292;SDS011;62290;59.420;17.842;2023-08-08T03:16:18;2.35;;;0.60;;
14292;SDS011;62290;59.420;17.842;2023-08-08T03:18:47;3.28;;;0.80;;
14292;SDS011;62290;59.420;17.842;2023-08-08T03:21:15;2.67;;;0.70;;
14292;SDS011;62290;59.420;17.842;2023-08-08T03:23:45;3.28;;;0.70;;
14292;SDS011;62290;59.420;17.842;2023-08-08T03:26:13;2.20;;;0.68;;
14292;SDS011;62290;59.420;17.842;2023-08-08T03:28:42;1.73;;;0.80;;
14292;SDS011;62290;59.420;17.842;2023-08-08T03:31:10;3.25;;;0.65;;
14292;SDS011;62290;59.420;17.842;2023-08-08T03:33:39;2.63;;;0.70;;
14292;SDS011;62290;59.420;17.842;2023-08-08T03:36:09;0.90;;;0.50;;
14292;SDS011;62290;59.420;17.842;2023-08-08T03:38:37;4.00;;;0.95;;
14292;SDS011;62290;59.420;17.842;2023-08-08T03:41:07;2.53;;;0.70;;
14292;SDS011;62290;59.420;17.842;2023-08-08T03:43:35;2.50;;;0.60;;
14292;SDS011;62290;59.420;17.842;2023-08-08T03:46:04;0.98;;;0.50;;
14292;SDS011;62290;59.420;17.842;2023-08-08T03:48:32;1.08;;;0.47;;
14292;SDS011;62290;59.420;17.842;2023-08-08T03:51:00;3.85;;;0.95;;
14292;SDS011;62290;59.420;17.842;2023-08-08T03:53:28;2.05;;;0.65;;
14292;SDS011;62290;59.420;17.842;2023-08-08T03:55:56;0.80;;;0.57;;
14292;SDS011;62290;59.420;17.842;2023-08-08T03:58:26;2.63;;;1.10;;
14292;SDS011;62290;59.420;17.842;2023-08-08T04:00:54;2.13;;;0.60;;
14292;SDS011;62290;59.420;17.842;2023-08-08T04:03:23;1.35;;;0.50;;
14292;SDS011;62290;59.420;17.842;2023-08-08T04:05:51;2.47;;;0.60;;
14292;SDS011;62290;59.420;17.842;2023-08-08T04:08:19;1.30;;;0.55;;
14292;SDS011;62290;59.420;17.842;2023-08-08T04:10:48;3.78;;;0.82;;
14292;SDS011;62290;59.420;17.842;2023-08-08T04:13:16;1.25;;;0.57;;
14292;SDS011;62290;59.420;17.842;2023-08-08T04:15:46;1.17;;;0.55;;
14292;SDS011;62290;59.420;17.842;2023-08-08T04:18:14;1.55;;;0.60;;
14292;SDS011;62290;59.420;17.842;2023-08-08T04:20:42;0.80;;;0.60;;
14292;SDS011;62290;59.420;17.842;2023-08-08T04:23:10;1.70;;;0.50;;
14292;SDS011;62290;59.420;17.842;2023-08-08T04:25:38;2.00;;;0.50;;
14292;SDS011;62290;59.420;17.842;2023-08-08T04:28:06;2.13;;;0.40;;
14292;SDS011;62290;59.420;17.842;2023-08-08T04:30:34;0.50;;;0.47;;
14292;SDS011;62290;59.420;17.842;2023-08-08T04:33:04;0.70;;;0.50;;
14292;SDS011;62290;59.420;17.842;2023-08-08T04:35:32;2.00;;;0.73;;
14292;SDS011;62290;59.420;17.842;2023-08-08T04:38:00;3.55;;;0.60;;
14292;SDS011;62290;59.420;17.842;2023-08-08T04:40:28;1.58;;;0.80;;
14292;SDS011;62290;59.420;17.842;2023-08-08T04:42:56;2.95;;;0.52;;
14292;SDS011;62290;59.420;17.842;2023-08-08T04:45:25;1.27;;;0.30;;
14292;SDS011;62290;59.420;17.842;2023-08-08T04:47:53;0.93;;;0.38;;
14292;SDS011;62290;59.420;17.842;2023-08-08T04:50:23;1.92;;;0.43;;
14292;SDS011;62290;59.420;17.842;2023-08-08T04:52:51;0.80;;;0.50;;
14292;SDS011;62290;59.420;17.842;2023-08-08T04:55:19;1.80;;;0.50;;
14292;SDS011;62290;59.420;17.842;2023-08-08T04:57:47;1.88;;;0.50;;
14292;SDS011;62290;59.420;17.842;2023-08-08T05:00:15;1.10;;;0.50;;
14292;SDS011;62290;59.420;17.842;2023-08-08T05:02:44;2.30;;;0.50;;
14292;SDS011;62290;59.420;17.842;2023-08-08T05:05:12;0.88;;;0.50;;
14292;SDS011;62290;59.420;17.842;2023-08-08T05:07:42;1.05;;;0.30;;
14292;SDS011;62290;59.420;17.842;2023-08-08T05:10:10;1.08;;;0.40;;
14292;SDS011;62290;59.420;17.842;2023-08-08T05:12:38;1.50;;;0.40;;
14292;SDS011;62290;59.420;17.842;2023-08-08T05:15:07;4.28;;;0.60;;
14292;SDS011;62290;59.420;17.842;2023-08-08T05:17:36;1.63;;;0.60;;
14292;SDS011;62290;59.420;17.842;2023-08-08T05:20:04;1.13;;;0.40;;
14292;SDS011;62290;59.420;17.842;2023-08-08T05:22:33;0.30;;;0.30;;
14292;SDS011;62290;59.420;17.842;2023-08-08T05:25:03;1.48;;;0.57;;
14292;SDS011;62290;59.420;17.842;2023-08-08T05:27:32;0.95;;;0.45;;
14292;SDS011;62290;59.420;17.842;2023-08-08T05:30:01;1.60;;;0.38;;
14292;SDS011;62290;59.420;17.842;2023-08-08T05:32:29;1.52;;;0.63;;
14292;SDS011;62290;59.420;17.842;2023-08-08T05:34:57;2.47;;;0.50;;
14292;SDS011;62290;59.420;17.842;2023-08-08T05:37:27;1.85;;;0.50;;
14292;SDS011;62290;59.420;17.842;2023-08-08T05:39:55;1.27;;;0.40;;
14292;SDS011;62290;59.420;17.842;2023-08-08T05:42:24;0.85;;;0.30;;
14292;SDS011;62290;59.420;17.842;2023-08-08T05:44:52;1.42;;;0.45;;
14292;SDS011;62290;59.420;17.842;2023-08-08T05:47:20;1.85;;;0.43;;
14292;SDS011;62290;59.420;17.842;2023-08-08T05:49:48;0.70;;;0.50;;
14292;SDS011;62290;59.420;17.842;2023-08-08T05:52:16;0.85;;;0.50;;
14292;SDS011;62290;59.420;17.842;2023-08-08T05:54:45;1.52;;;0.68;;
14292;SDS011;62290;59.420;17.842;2023-08-08T05:57:13;0.70;;;0.40;;
14292;SDS011;62290;59.420;17.842;2023-08-08T05:59:42;0.63;;;0.40;;
14292;SDS011;62290;59.420;17.842;2023-08-08T06:02:11;0.60;;;0.40;;
14292;SDS011;62290;59.420;17.842;2023-08-08T06:04:39;0.88;;;0.47;;
14292;SDS011;62290;59.420;17.842;2023-08-08T06:07:07;0.45;;;0.30;;
14292;SDS011;62290;59.420;17.842;2023-08-08T06:09:35;0.63;;;0.38;;
14292;SDS011;62290;59.420;17.842;2023-08-08T06:12:04;1.52;;;0.52;;
14292;SDS011;62290;59.420;17.842;2023-08-08T06:14:33;0.28;;;0.28;;
14292;SDS011;62290;59.420;17.842;2023-08-08T06:17:04;0.55;;;0.35;;
14292;SDS011;62290;59.420;17.842;2023-08-08T06:19:32;1.73;;;0.45;;
14292;SDS011;62290;59.420;17.842;2023-08-08T06:22:00;0.77;;;0.30;;
14292;SDS011;62290;59.420;17.842;2023-08-08T06:24:29;0.38;;;0.30;;
14292;SDS011;62290;59.420;17.842;2023-08-08T06:26:58;0.90;;;0.40;;
14292;SDS011;62290;59.420;17.842;2023-08-08T06:29:26;2.05;;;0.60;;
14292;SDS011;62290;59.420;17.842;2023-08-08T06:31:54;1.35;;;0.40;;
14292;SDS011;62290;59.420;17.842;2023-08-08T06:34:24;0.50;;;0.40;;
14292;SDS011;62290;59.420;17.842;2023-08-08T06:36:52;1.15;;;0.43;;
14292;SDS011;62290;59.420;17.842;2023-08-08T06:39:20;0.70;;;0.40;;
14292;SDS011;62290;59.420;17.842;2023-08-08T06:41:48;0.85;;;0.30;;
14292;SDS011;62290;59.420;17.842;2023-08-08T06:44:28;0.60;;;0.40;;
14292;SDS011;62290;59.420;17.842;2023-08-08T06:46:56;1.77;;;0.40;;
14292;SDS011;62290;59.420;17.842;2023-08-08T06:49:25;1.17;;;0.40;;
14292;SDS011;62290;59.420;17.842;2023-08-08T06:51:53;0.30;;;0.30;;
14292;SDS011;62290;59.420;17.842;2023-08-08T06:54:22;1.50;;;0.40;;
14292;SDS011;62290;59.420;17.842;2023-08-08T06:56:50;0.75;;;0.30;;
14292;SDS011;62290;59.420;17.842;2023-08-08T06:59:18;0.65;;;0.40;;
14292;SDS011;62290;59.420;17.842;2023-08-08T07:01:47;0.47;;;0.30;;
14292;SDS011;62290;59.420;17.842;2023-08-08T07:04:15;0.85;;;0.50;;
14292;SDS011;62290;59.420;17.842;2023-08-08T07:06:45;1.65;;;0.52;;
14292;SDS011;62290;59.420;17.842;2023-08-08T07:09:13;0.38;;;0.20;;
14292;SDS011;62290;59.420;17.842;2023-08-08T07:11:41;0.90;;;0.30;;
14292;SDS011;62290;59.420;17.842;2023-08-08T07:14:09;1.35;;;0.40;;
14292;SDS011;62290;59.420;17.842;2023-08-08T07:16:37;0.38;;;0.20;;
14292;SDS011;62290;59.420;17.842;2023-08-08T07:19:05;0.80;;;0.20;;
14292;SDS011;62290;59.420;17.842;2023-08-08T07:21:33;1.58;;;0.40;;
14292;SDS011;62290;59.420;17.842;2023-08-08T07:24:03;0.52;;;0.30;;
14292;SDS011;62290;59.420;17.842;2023-08-08T07:26:31;0.55;;;0.40;;
14292;SDS011;62290;59.420;17.842;2023-08-08T07:28:59;0.30;;;0.30;;
14292;SDS011;62290;59.420;17.842;2023-08-08T07:31:27;0.20;;;0.20;;
14292;SDS011;62290;59.420;17.842;2023-08-08T07:33:55;0.25;;;0.22;;
14292;SDS011;62290;59.420;17.842;2023-08-08T07:36:23;1.02;;;0.30;;
14292;SDS011;62290;59.420;17.842;2023-08-08T07:38:51;0.70;;;0.30;;
14292;SDS011;62290;59.420;17.842;2023-08-08T07:41:24;0.98;;;0.40;;
14292;SDS011;62290;59.420;17.842;2023-08-08T07:43:52;0.95;;;0.35;;
14292;SDS011;62290;59.420;17.842;2023-08-08T07:46:20;1.67;;;0.38;;
14292;SDS011;62290;59.420;17.842;2023-08-08T07:48:48;0.75;;;0.30;;
14292;SDS011;62290;59.420;17.842;2023-08-08T07:51:16;0.20;;;0.20;;
14292;SDS011;62290;59.420;17.842;2023-08-08T07:53:45;0.70;;;0.40;;
14292;SDS011;62290;59.420;17.842;2023-08-08T07:56:12;0.50;;;0.40;;
14292;SDS011;62290;59.420;17.842;2023-08-08T07:58:42;1.75;;;0.30;;
14292;SDS011;62290;59.420;17.842;2023-08-08T08:01:10;0.70;;;0.30;;
14292;SDS011;62290;59.420;17.842;2023-08-08T08:03:40;2.47;;;0.40;;
14292;SDS011;62290;59.420;17.842;2023-08-08T08:06:08;1.95;;;0.32;;
14292;SDS011;62290;59.420;17.842;2023-08-08T08:08:36;0.80;;;0.40;;
14292;SDS011;62290;59.420;17.842;2023-08-08T08:11:04;1.88;;;0.47;;
14292;SDS011;62290;59.420;17.842;2023-08-08T08:13:32;1.42;;;0.60;;
14292;SDS011;62290;59.420;17.842;2023-08-08T08:16:02;0.40;;;0.40;;
14292;SDS011;62290;59.420;17.842;2023-08-08T08:18:30;0.93;;;0.50;;
14292;SDS011;62290;59.420;17.842;2023-08-08T08:20:59;1.55;;;0.40;;
14292;SDS011;62290;59.420;17.842;2023-08-08T08:23:28;1.10;;;0.50;;
14292;SDS011;62290;59.420;17.842;2023-08-08T08:25:58;1.10;;;0.60;;
14292;SDS011;62290;59.420;17.842;2023-08-08T08:28:26;2.45;;;0.68;;
14292;SDS011;62290;59.420;17.842;2023-08-08T08:30:54;0.80;;;0.40;;
14292;SDS011;62290;59.420;17.842;2023-08-08T08:33:24;0.45;;;0.30;;
14292;SDS011;62290;59.420;17.842;2023-08-08T08:35:51;0.60;;;0.38;;
14292;SDS011;62290;59.420;17.842;2023-08-08T08:38:20;0.75;;;0.60;;
14292;SDS011;62290;59.420;17.842;2023-08-08T08:40:48;0.80;;;0.40;;
14292;SDS011;62290;59.420;17.842;2023-08-08T08:43:16;1.35;;;0.50;;
14292;SDS011;62290;59.420;17.842;2023-08-08T08:45:46;2.50;;;0.75;;
14292;SDS011;62290;59.420;17.842;2023-08-08T08:48:17;1.45;;;0.50;;
14292;SDS011;62290;59.420;17.842;2023-08-08T08:50:48;0.95;;;0.47;;
14292;SDS011;62290;59.420;17.842;2023-08-08T08:53:16;0.30;;;0.30;;
14292;SDS011;62290;59.420;17.842;2023-08-08T08:55:45;1.30;;;0.50;;
14292;SDS011;62290;59.420;17.842;2023-08-08T08:58:15;0.50;;;0.35;;
14292;SDS011;62290;59.420;17.842;2023-08-08T09:00:44;0.80;;;0.40;;
14292;SDS011;62290;59.420;17.842;2023-08-08T09:03:13;0.80;;;0.32;;
14292;SDS011;62290;59.420;17.842;2023-08-08T09:05:41;0.50;;;0.35;;
14292;SDS011;62290;59.420;17.842;2023-08-08T09:08:12;0.63;;;0.43;;
14292;SDS011;62290;59.420;17.842;2023-08-08T09:10:41;0.88;;;0.40;;
14292;SDS011;62290;59.420;17.842;2023-08-08T09:13:09;1.30;;;0.50;;
14292;SDS011;62290;59.420;17.842;2023-08-08T09:15:37;0.65;;;0.30;;
14292;SDS011;62290;59.420;17.842;2023-08-08T09:18:07;0.57;;;0.38;;
14292;SDS011;62290;59.420;17.842;2023-08-08T09:20:35;1.63;;;0.40;;
14292;SDS011;62290;59.420;17.842;2023-08-08T09:23:03;0.30;;;0.30;;
14292;SDS011;62290;59.420;17.842;2023-08-08T09:25:33;2.55;;;0.50;;
14292;SDS011;62290;59.420;17.842;2023-08-08T09:28:01;0.75;;;0.40;;
14292;SDS011;62290;59.420;17.842;2023-08-08T09:30:29;0.70;;;0.55;;
14292;SDS011;62290;59.420;17.842;2023-08-08T09:32:59;0.52;;;0.32;;
14292;SDS011;62290;59.420;17.842;2023-08-08T09:35:28;1.50;;;0.50;;
14292;SDS011;62290;59.420;17.842;2023-08-08T09:37:56;1.95;;;0.40;;
14292;SDS011;62290;59.420;17.842;2023-08-08T09:40:24;1.55;;;0.47;;
14292;SDS011;62290;59.420;17.842;2023-08-08T09:42:56;0.80;;;0.47;;
14292;SDS011;62290;59.420;17.842;2023-08-08T09:45:25;0.70;;;0.40;;
14292;SDS011;62290;59.420;17.842;2023-08-08T09:47:53;0.38;;;0.38;;
14292;SDS011;62290;59.420;17.842;2023-08-08T09:50:21;0.50;;;0.50;;
14292;SDS011;62290;59.420;17.842;2023-08-08T09:52:49;0.82;;;0.30;;
14292;SDS011;62290;59.420;17.842;2023-08-08T09:55:19;0.45;;;0.45;;
14292;SDS011;62290;59.420;17.842;2023-08-08T09:57:48;0.68;;;0.50;;
14292;SDS011;62290;59.420;17.842;2023-08-08T10:00:18;0.38;;;0.38;;
14292;SDS011;62290;59.420;17.842;2023-08-08T10:02:47;0.75;;;0.50;;
14292;SDS011;62290;59.420;17.842;2023-08-08T10:05:15;0.55;;;0.55;;
14292;SDS011;62290;59.420;17.842;2023-08-08T10:07:44;0.93;;;0.47;;
14292;SDS011;62290;59.420;17.842;2023-08-08T10:10:12;0.43;;;0.43;;
14292;SDS011;62290;59.420;17.842;2023-08-08T10:12:41;0.50;;;0.40;;
14292;SDS011;62290;59.420;17.842;2023-08-08T10:15:10;1.05;;;0.40;;
14292;SDS011;62290;59.420;17.842;2023-08-08T10:17:40;1.08;;;0.43;;
14292;SDS011;62290;59.420;17.842;2023-08-08T10:20:09;0.70;;;0.57;;
14292;SDS011;62290;59.420;17.842;2023-08-08T10:22:41;1.00;;;0.77;;
14292;SDS011;62290;59.420;17.842;2023-08-08T10:25:17;0.80;;;0.70;;
14292;SDS011;62290;59.420;17.842;2023-08-08T10:27:46;2.38;;;0.90;;
14292;SDS011;62290;59.420;17.842;2023-08-08T10:30:14;0.52;;;0.52;;
14292;SDS011;62290;59.420;17.842;2023-08-08T10:32:44;1.15;;;0.55;;
14292;SDS011;62290;59.420;17.842;2023-08-08T10:35:13;0.70;;;0.60;;
14292;SDS011;62290;59.420;17.842;2023-08-08T10:37:51;9.50;;;4.25;;
14292;SDS011;62290;59.420;17.842;2023-08-08T10:40:20;132.55;;;76.90;;
14292;SDS011;62290;59.420;17.842;2023-08-08T10:42:48;179.38;;;107.65;;
14292;SDS011;62290;59.420;17.842;2023-08-08T10:45:16;173.63;;;107.45;;
14292;SDS011;62290;59.420;17.842;2023-08-08T10:47:45;190.35;;;118.30;;
14292;SDS011;62290;59.420;17.842;2023-08-08T10:50:14;125.28;;;76.93;;
14292;SDS011;62290;59.420;17.842;2023-08-08T10:52:49;92.47;;;54.83;;
14292;SDS011;62290;59.420;17.842;2023-08-08T10:55:21;70.95;;;44.70;;
14292;SDS011;62290;59.420;17.842;2023-08-08T10:57:53;56.78;;;36.50;;
14292;SDS011;62290;59.420;17.842;2023-08-08T11:00:24;49.25;;;30.90;;
14292;SDS011;62290;59.420;17.842;2023-08-08T11:02:55;35.78;;;23.55;;
14292;SDS011;62290;59.420;17.842;2023-08-08T11:05:24;32.22;;;20.20;;
14292;SDS011;62290;59.420;17.842;2023-08-08T11:07:53;30.60;;;18.73;;
14292;SDS011;62290;59.420;17.842;2023-08-08T11:10:22;22.35;;;14.52;;
14292;SDS011;62290;59.420;17.842;2023-08-08T11:12:54;19.27;;;12.20;;
14292;SDS011;62290;59.420;17.842;2023-08-08T11:15:23;20.10;;;11.75;;
14292;SDS011;62290;59.420;17.842;2023-08-08T11:17:55;14.63;;;9.70;;
14292;SDS011;62290;59.420;17.842;2023-08-08T11:20:23;11.18;;;8.00;;
14292;SDS011;62290;59.420;17.842;2023-08-08T11:22:52;11.48;;;7.13;;
14292;SDS011;62290;59.420;17.842;2023-08-08T11:25:21;13.77;;;8.75;;
14292;SDS011;62290;59.420;17.842;2023-08-08T11:27:50;10.90;;;6.95;;
14292;SDS011;62290;59.420;17.842;2023-08-08T11:30:20;13.95;;;8.45;;
14292;SDS011;62290;59.420;17.842;2023-08-08T11:32:49;9.73;;;4.75;;
14292;SDS011;62290;59.420;17.842;2023-08-08T11:35:23;11.55;;;6.57;;
14292;SDS011;62290;59.420;17.842;2023-08-08T11:37:52;11.00;;;5.25;;
14292;SDS011;62290;59.420;17.842;2023-08-08T11:40:22;8.85;;;4.03;;
14292;SDS011;62290;59.420;17.842;2023-08-08T11:42:53;8.98;;;4.38;;
14292;SDS011;62290;59.420;17.842;2023-08-08T11:45:23;7.70;;;4.15;;
14292;SDS011;62290;59.420;17.842;2023-08-08T11:47:54;8.75;;;4.43;;
14292;SDS011;62290;59.420;17.842;2023-08-08T11:50:24;6.25;;;3.30;;
14292;SDS011;62290;59.420;17.842;2023-08-08T11:52:54;8.50;;;4.55;;
14292;SDS011;62290;59.420;17.842;2023-08-08T11:55:26;8.00;;;4.07;;
14292;SDS011;62290;59.420;17.842;2023-08-08T11:57:55;8.70;;;4.20;;
14292;SDS011;62290;59.420;17.842;2023-08-08T12:00:27;10.63;;;4.53;;
14292;SDS011;62290;59.420;17.842;2023-08-08T12:02:56;13.57;;;4.82;;
14292;SDS011;62290;59.420;17.842;2023-08-08T12:05:26;7.72;;;4.28;;
14292;SDS011;62290;59.420;17.842;2023-08-08T12:07:55;8.95;;;4.07;;
14292;SDS011;62290;59.420;17.842;2023-08-08T12:10:23;8.18;;;3.10;;
14292;SDS011;62290;59.420;17.842;2023-08-08T12:12:52;9.20;;;3.80;;
14292;SDS011;62290;59.420;17.842;2023-08-08T12:15:23;6.60;;;3.40;;
14292;SDS011;62290;59.420;17.842;2023-08-08T12:17:51;7.60;;;3.40;;
14292;SDS011;62290;59.420;17.842;2023-08-08T12:20:19;6.88;;;3.10;;
14292;SDS011;62290;59.420;17.842;2023-08-08T12:22:48;5.68;;;2.78;;
14292;SDS011;62290;59.420;17.842;2023-08-08T12:25:16;4.35;;;2.70;;
14292;SDS011;62290;59.420;17.842;2023-08-08T12:27:44;6.68;;;2.85;;
14292;SDS011;62290;59.420;17.842;2023-08-08T12:30:15;5.50;;;2.58;;
14292;SDS011;62290;59.420;17.842;2023-08-08T12:32:43;3.33;;;2.65;;
14292;SDS011;62290;59.420;17.842;2023-08-08T12:35:11;3.80;;;2.22;;
14292;SDS011;62290;59.420;17.842;2023-08-08T12:37:39;4.38;;;2.20;;
14292;SDS011;62290;59.420;17.842;2023-08-08T12:40:09;3.20;;;1.95;;
14292;SDS011;62290;59.420;17.842;2023-08-08T12:42:37;3.45;;;1.70;;
14292;SDS011;62290;59.420;17.842;2023-08-08T12:45:06;5.22;;;2.30;;
14292;SDS011;62290;59.420;17.842;2023-08-08T12:47:36;6.35;;;1.92;;
14292;SDS011;62290;59.420;17.842;2023-08-08T12:50:04;2.45;;;1.50;;
14292;SDS011;62290;59.420;17.842;2023-08-08T12:52:34;3.47;;;1.70;;
14292;SDS011;62290;59.420;17.842;2023-08-08T12:55:05;4.07;;;1.67;;
14292;SDS011;62290;59.420;17.842;2023-08-08T12:57:37;2.13;;;1.15;;
14292;SDS011;62290;59.420;17.842;2023-08-08T13:00:05;3.22;;;1.33;;
14292;SDS011;62290;59.420;17.842;2023-08-08T13:02:37;3.10;;;1.67;;
14292;SDS011;62290;59.420;17.842;2023-08-08T13:05:05;2.50;;;1.48;;
14292;SDS011;62290;59.420;17.842;2023-08-08T13:07:34;3.20;;;1.10;;
14292;SDS011;62290;59.420;17.842;2023-08-08T13:10:02;2.38;;;1.10;;
14292;SDS011;62290;59.420;17.842;2023-08-08T13:12:31;2.30;;;1.30;;
14292;SDS011;62290;59.420;17.842;2023-08-08T13:15:00;3.30;;;1.35;;
14292;SDS011;62290;59.420;17.842;2023-08-08T13:17:28;2.38;;;1.10;;
14292;SDS011;62290;59.420;17.842;2023-08-08T13:19:57;1.90;;;1.05;;
14292;SDS011;62290;59.420;17.842;2023-08-08T13:22:25;3.35;;;1.30;;
14292;SDS011;62290;59.420;17.842;2023-08-08T13:24:53;2.78;;;1.20;;
14292;SDS011;62290;59.420;17.842;2023-08-08T13:27:21;2.35;;;1.33;;
14292;SDS011;62290;59.420;17.842;2023-08-08T13:29:49;2.13;;;0.90;;
14292;SDS011;62290;59.420;17.842;2023-08-08T13:32:18;3.40;;;1.63;;
14292;SDS011;62290;59.420;17.842;2023-08-08T13:34:46;2.85;;;1.50;;
14292;SDS011;62290;59.420;17.842;2023-08-08T13:37:14;3.65;;;1.20;;
14292;SDS011;62290;59.420;17.842;2023-08-08T13:39:43;6.18;;;1.17;;
14292;SDS011;62290;59.420;17.842;2023-08-08T13:42:11;6.47;;;1.45;;
14292;SDS011;62290;59.420;17.842;2023-08-08T13:44:39;18.25;;;4.45;;
14292;SDS011;62290;59.420;17.842;2023-08-08T13:47:07;22.33;;;6.63;;
14292;SDS011;62290;59.420;17.842;2023-08-08T13:49:36;16.40;;;4.03;;
14292;SDS011;62290;59.420;17.842;2023-08-08T13:52:05;12.35;;;4.55;;
14292;SDS011;62290;59.420;17.842;2023-08-08T13:54:33;7.22;;;2.28;;
14292;SDS011;62290;59.420;17.842;2023-08-08T13:57:01;6.00;;;1.92;;
14292;SDS011;62290;59.420;17.842;2023-08-08T13:59:29;7.13;;;2.67;;
14292;SDS011;62290;59.420;17.842;2023-08-08T14:01:57;8.57;;;2.35;;
14292;SDS011;62290;59.420;17.842;2023-08-08T14:04:26;6.80;;;2.22;;
14292;SDS011;62290;59.420;17.842;2023-08-08T14:06:55;13.30;;;2.58;;
14292;SDS011;62290;59.420;17.842;2023-08-08T14:09:23;12.90;;;2.65;;
14292;SDS011;62290;59.420;17.842;2023-08-08T14:11:51;6.25;;;1.85;;
14292;SDS011;62290;59.420;17.842;2023-08-08T14:14:19;8.93;;;2.10;;
14292;SDS011;62290;59.420;17.842;2023-08-08T14:16:47;8.85;;;2.05;;
14292;SDS011;62290;59.420;17.842;2023-08-08T14:19:15;6.55;;;1.75;;
14292;SDS011;62290;59.420;17.842;2023-08-08T14:21:43;8.10;;;1.85;;
14292;SDS011;62290;59.420;17.842;2023-08-08T14:24:13;12.20;;;2.30;;
14292;SDS011;62290;59.420;17.842;2023-08-08T14:26:41;8.65;;;1.65;;
14292;SDS011;62290;59.420;17.842;2023-08-08T14:29:09;7.97;;;2.08;;
14292;SDS011;62290;59.420;17.842;2023-08-08T14:31:37;10.50;;;2.10;;
14292;SDS011;62290;59.420;17.842;2023-08-08T14:34:28;5.80;;;1.27;;
14292;SDS011;62290;59.420;17.842;2023-08-08T14:36:56;5.05;;;1.35;;
14292;SDS011;62290;59.420;17.842;2023-08-08T14:39:26;3.30;;;1.40;;
14292;SDS011;62290;59.420;17.842;2023-08-08T14:41:54;6.47;;;1.20;;